Time;durP1;ratioP1;P1;durP2;ratioP2;P2;SDS_P1;SDS_P2;PMS_P1;PMS_P2;Temp;Humidity;BMP_temperature;BMP_pressure;BME280_temperature;BME280_humidity;BME280_pressure;Samples;Min_cycle;Max_cycle;Signal;HPM_P1;HPM_P2
2023/05/16 00:02:39;;;;;;;;;;;20.20;58.00;;;;;;6278602;28;19915;-67
2023/05/16 00:05:39;;;;;;;;;;;20.20;58.00;;;;;;6317704;28;19912;-67
2023/05/16 00:08:40;;;;;;;;;;;20.20;58.00;;;;;;6287330;28;19919;-67
2023/05/16 00:11:41;;;;;;;;;;;20.20;58.00;;;;;;6292443;28;19912;-67
2023/05/16 00:14:42;;;;;;;;;;;20.20;58.00;;;;;;6292258;28;19915;-67
2023/05/16 00:17:45;;;;;;;;;;;20.20;58.00;;;;;;6294793;28;20488;-67
2023/05/16 00:20:45;;;;;;;;;;;20.20;58.00;;;;;;6299296;28;19957;-67
2023/05/16 00:23:46;;;;;;;;;;;20.20;58.00;;;;;;6306725;28;20258;-67
2023/05/16 00:26:46;;;;;;;;;;;20.20;58.00;;;;;;6274597;28;19995;-67
2023/05/16 00:29:47;;;;;;;;;;;20.20;58.00;;;;;;6292673;28;20329;-67
2023/05/16 00:32:47;;;;;;;;;;;20.20;58.00;;;;;;6300102;28;19908;-67
2023/05/16 00:35:48;;;;;;;;;;;20.20;58.00;;;;;;6296711;28;19908;-67
2023/05/16 00:38:48;;;;;;;;;;;20.20;58.00;;;;;;6278887;28;20008;-67
2023/05/16 00:41:50;;;;;;;;;;;20.20;58.00;;;;;;6278176;28;19940;-67
2023/05/16 00:44:50;;;;;;;;;;;20.20;58.00;;;;;;6270481;28;19931;-67
2023/05/16 00:47:51;;;;;;;;;;;20.20;58.00;;;;;;6270293;28;20558;-67
2023/05/16 00:50:52;;;;;;;;;;;20.20;58.00;;;;;;6295839;28;19909;-67
2023/05/16 00:53:53;;;;;;;;;;;20.20;58.00;;;;;;6303331;28;19939;-67
2023/05/16 00:56:55;;;;;;;;;;;20.20;58.00;;;;;;6312636;28;19913;-67
2023/05/16 00:59:56;;;;;;;;;;;20.20;58.00;;;;;;6311861;28;19913;-66
2023/05/16 01:02:56;;;;;;;;;;;20.20;58.00;;;;;;6302868;28;19915;-67
2023/05/16 01:05:57;;;;;;;;;;;20.20;58.00;;;;;;6297333;28;19908;-67
2023/05/16 01:08:58;;;;;;;;;;;20.20;58.00;;;;;;6302218;28;20021;-67
2023/05/16 01:12:17;;;;;;;;;;;20.20;58.00;;;;;;6302725;28;19919;-67
2023/05/16 01:15:24;;;;;;;;;;;20.20;58.00;;;;;;6304109;28;19909;-67
2023/05/16 01:18:44;;;;;;;;;;;20.20;58.00;;;;;;6277920;28;19909;-67
2023/05/16 01:21:52;;;;;;;;;;;20.20;58.00;;;;;;6320797;28;20444;-67
2023/05/16 01:25:20;;;;;;;;;;;20.20;58.00;;;;;;6299195;28;19912;-67
2023/05/16 01:28:21;;;;;;;;;;;20.20;58.00;;;;;;6295543;28;19944;-66
2023/05/16 01:31:22;;;;;;;;;;;20.20;58.00;;;;;;6277561;28;20403;-67
2023/05/16 01:34:23;;;;;;;;;;;20.20;58.00;;;;;;6301716;28;20364;-67
2023/05/16 01:37:28;;;;;;;;;;;20.20;58.00;;;;;;6285236;28;19909;-67
2023/05/16 01:40:35;;;;;;;;;;;20.20;58.00;;;;;;6291807;28;19916;-67
2023/05/16 01:43:40;;;;;;;;;;;20.20;58.00;;;;;;6301728;28;19912;-67
2023/05/16 01:46:43;;;;;;;;;;;20.20;58.00;;;;;;6296154;28;19909;-67
2023/05/16 01:49:43;;;;;;;;;;;20.20;58.00;;;;;;6283875;28;19916;-67
2023/05/16 01:52:48;;;;;;;;;;;20.20;58.00;;;;;;6320048;28;20411;-66
2023/05/16 01:55:54;;;;;;;;;;;20.20;58.00;;;;;;6320158;28;19930;-67
2023/05/16 01:58:56;;;;;;;;;;;20.20;58.00;;;;;;6320198;28;19912;-67
2023/05/16 02:01:58;;;;;;;;;;;20.20;58.00;;;;;;6277294;28;19908;-67
2023/05/16 02:04:58;;;;;;;;;;;20.20;58.00;;;;;;6300365;28;19915;-67
2023/05/16 02:07:59;;;;;;;;;;;20.20;58.00;;;;;;6319600;28;19920;-67
2023/05/16 02:11:00;;;;;;;;;;;20.20;58.00;;;;;;6304823;28;20275;-67
2023/05/16 02:14:00;;;;;;;;;;;20.20;58.00;;;;;;6276409;28;19908;-67
2023/05/16 02:17:01;;;;;;;;;;;20.20;58.00;;;;;;6317380;28;20376;-67
2023/05/16 02:20:05;;;;;;;;;;;20.20;58.00;;;;;;6296370;28;19908;-67
2023/05/16 02:23:06;;;;;;;;;;;20.20;58.00;;;;;;6276313;28;19913;-67
2023/05/16 02:26:06;;;;;;;;;;;20.20;58.00;;;;;;6307369;28;19952;-67
2023/05/16 02:29:08;;;;;;;;;;;20.20;58.00;;;;;;6301301;28;19919;-67
2023/05/16 02:32:08;;;;;;;;;;;20.20;58.00;;;;;;6279370;28;19959;-68
2023/05/16 02:35:09;;;;;;;;;;;20.20;58.10;;;;;;6276099;28;19943;-67
2023/05/16 02:38:10;;;;;;;;;;;20.20;58.00;;;;;;6299214;28;19908;-67
2023/05/16 02:41:10;;;;;;;;;;;20.20;58.00;;;;;;6306857;28;19948;-67
2023/05/16 02:44:11;;;;;;;;;;;20.20;58.00;;;;;;6275929;28;20371;-67
2023/05/16 02:47:12;;;;;;;;;;;20.20;58.00;;;;;;6293488;28;20304;-67
2023/05/16 02:50:12;;;;;;;;;;;20.20;58.10;;;;;;6296064;28;19908;-67
2023/05/16 02:53:13;;;;;;;;;;;20.20;58.10;;;;;;6318616;28;19927;-67
2023/05/16 02:56:13;;;;;;;;;;;20.20;58.10;;;;;;6289530;28;19916;-68
2023/05/16 02:59:14;;;;;;;;;;;20.20;58.00;;;;;;6275836;28;20403;-68
2023/05/16 03:02:14;;;;;;;;;;;20.20;58.10;;;;;;6293403;28;19908;-67
2023/05/16 03:05:15;;;;;;;;;;;20.20;58.10;;;;;;6317632;28;20426;-66
2023/05/16 03:08:16;;;;;;;;;;;20.20;58.10;;;;;;6275084;28;19999;-67
2023/05/16 03:11:21;;;;;;;;;;;20.20;58.10;;;;;;6275892;28;19915;-67
2023/05/16 03:14:22;;;;;;;;;;;20.20;58.00;;;;;;6274804;28;20426;-67
2023/05/16 03:17:22;;;;;;;;;;;20.20;58.00;;;;;;6274828;28;20039;-67
2023/05/16 03:20:23;;;;;;;;;;;20.20;58.00;;;;;;6275676;28;19916;-68
2023/05/16 03:23:23;;;;;;;;;;;20.20;58.80;;;;;;6317923;28;19997;-67
2023/05/16 03:26:24;;;;;;;;;;;20.20;58.10;;;;;;6310091;28;19909;-67
2023/05/16 03:29:25;;;;;;;;;;;20.20;58.00;;;;;;6275205;28;19916;-68
2023/05/16 03:32:26;;;;;;;;;;;20.20;58.10;;;;;;6290444;28;19912;-67
2023/05/16 03:35:27;;;;;;;;;;;20.20;58.00;;;;;;6317517;28;19961;-67
2023/05/16 03:38:28;;;;;;;;;;;20.20;58.00;;;;;;6316127;28;19970;-66
2023/05/16 03:41:28;;;;;;;;;;;20.20;58.10;;;;;;6293926;28;20385;-67
2023/05/16 03:44:29;;;;;;;;;;;20.20;58.10;;;;;;6292766;28;19908;-67
2023/05/16 03:47:30;;;;;;;;;;;20.20;58.10;;;;;;6306613;28;19935;-68
2023/05/16 03:50:31;;;;;;;;;;;20.20;58.00;;;;;;6317820;28;19944;-67
2023/05/16 03:53:32;;;;;;;;;;;20.20;58.00;;;;;;6277629;28;19926;-67
2023/05/16 03:56:32;;;;;;;;;;;20.20;58.10;;;;;;6292603;28;20121;-67
2023/05/16 04:03:10;;;;;;;;;;;20.20;58.10;;;;;;6310416;28;19912;-67
2023/05/16 04:06:11;;;;;;;;;;;20.20;58.00;;;;;;6275612;28;20423;-67
2023/05/16 04:09:12;;;;;;;;;;;20.20;58.00;;;;;;6321291;28;20391;-67
2023/05/16 04:12:12;;;;;;;;;;;20.20;58.00;;;;;;6295776;28;19912;-67
2023/05/16 04:15:13;;;;;;;;;;;20.20;58.10;;;;;;6297275;28;20061;-67
2023/05/16 04:18:14;;;;;;;;;;;20.20;58.10;;;;;;6312631;28;19908;-67
2023/05/16 04:21:14;;;;;;;;;;;20.20;58.10;;;;;;6304005;28;19908;-67
2023/05/16 04:24:15;;;;;;;;;;;20.20;58.10;;;;;;6319579;28;19963;-67
2023/05/16 04:27:16;;;;;;;;;;;20.20;58.00;;;;;;6297472;28;19917;-67
2023/05/16 04:30:16;;;;;;;;;;;20.20;58.10;;;;;;6297210;28;19939;-67
2023/05/16 04:33:17;;;;;;;;;;;20.20;58.10;;;;;;6310886;28;19912;-74
2023/05/16 04:36:18;;;;;;;;;;;20.20;58.10;;;;;;6297761;28;20448;-68
2023/05/16 04:39:19;;;;;;;;;;;20.20;58.00;;;;;;6279921;28;20006;-68
2023/05/16 04:42:19;;;;;;;;;;;20.20;58.10;;;;;;6280623;28;19924;-68
2023/05/16 04:45:20;;;;;;;;;;;20.20;58.10;;;;;;6269511;28;19986;-68
2023/05/16 04:48:21;;;;;;;;;;;20.20;58.10;;;;;;6304978;28;19919;-68
2023/05/16 04:51:22;;;;;;;;;;;20.20;58.10;;;;;;6311071;28;20273;-68
2023/05/16 04:54:22;;;;;;;;;;;20.20;58.10;;;;;;6277066;28;19935;-68
2023/05/16 04:57:23;;;;;;;;;;;20.20;58.10;;;;;;6287059;28;20351;-68
2023/05/16 05:00:24;;;;;;;;;;;20.20;58.10;;;;;;6295770;28;19908;-68
2023/05/16 05:03:25;;;;;;;;;;;20.20;58.10;;;;;;6304789;28;19916;-68
2023/05/16 05:06:25;;;;;;;;;;;20.20;58.10;;;;;;6317473;28;19909;-68
2023/05/16 05:09:26;;;;;;;;;;;20.20;58.10;;;;;;6296107;28;19947;-68
2023/05/16 05:12:27;;;;;;;;;;;20.20;58.10;;;;;;6318783;28;19922;-68
2023/05/16 05:15:28;;;;;;;;;;;20.20;58.10;;;;;;6294968;28;19927;-68
2023/05/16 05:18:28;;;;;;;;;;;20.20;58.10;;;;;;6303363;28;20018;-68
2023/05/16 05:21:29;;;;;;;;;;;20.20;58.00;;;;;;6317703;28;19908;-68
2023/05/16 05:24:30;;;;;;;;;;;20.20;58.10;;;;;;6312550;28;19912;-68
2023/05/16 05:27:30;;;;;;;;;;;20.20;58.10;;;;;;6297327;28;19922;-68
2023/05/16 05:30:31;;;;;;;;;;;20.20;58.10;;;;;;6294055;28;20000;-67
2023/05/16 05:33:32;;;;;;;;;;;20.20;58.10;;;;;;6287126;28;19952;-66
2023/05/16 05:36:32;;;;;;;;;;;20.20;58.10;;;;;;6265217;28;19916;-67
2023/05/16 05:39:33;;;;;;;;;;;20.20;58.10;;;;;;6304327;28;19913;-67
2023/05/16 05:42:34;;;;;;;;;;;20.20;58.10;;;;;;6303033;28;19958;-68
2023/05/16 05:45:35;;;;;;;;;;;20.20;58.10;;;;;;6295292;28;19912;-67
2023/05/16 05:48:35;;;;;;;;;;;20.20;58.10;;;;;;6283308;28;19912;-68
2023/05/16 05:51:36;;;;;;;;;;;20.20;58.10;;;;;;6302027;28;19931;-67
2023/05/16 05:54:36;;;;;;;;;;;20.20;58.10;;;;;;6288543;28;19909;-69
2023/05/16 05:57:37;;;;;;;;;;;20.20;58.10;;;;;;6294741;28;19943;-69
2023/05/16 06:00:38;;;;;;;;;;;20.20;58.10;;;;;;6286245;28;19908;-67
2023/05/16 06:03:38;;;;;;;;;;;20.20;58.10;;;;;;6308182;28;19919;-67
2023/05/16 06:06:39;;;;;;;;;;;20.20;58.10;;;;;;6297183;28;20369;-68
2023/05/16 06:09:41;;;;;;;;;;;20.20;58.10;;;;;;6283870;28;19917;-66
2023/05/16 06:12:42;;;;;;;;;;;20.20;58.10;;;;;;6280194;28;19920;-69
2023/05/16 06:15:42;;;;;;;;;;;20.20;58.10;;;;;;6291936;28;19920;-68
2023/05/16 06:18:43;;;;;;;;;;;20.20;58.10;;;;;;6278248;28;20365;-69
2023/05/16 06:21:44;;;;;;;;;;;20.20;58.20;;;;;;6279042;28;19909;-69
2023/05/16 06:24:44;;;;;;;;;;;20.20;58.30;;;;;;6296429;28;19909;-68
2023/05/16 06:27:45;;;;;;;;;;;20.30;58.20;;;;;;6295218;28;19924;-68
2023/05/16 06:30:46;;;;;;;;;;;20.20;58.10;;;;;;6290344;28;19923;-68
2023/05/16 06:33:47;;;;;;;;;;;20.20;58.00;;;;;;6296365;28;19956;-68
2023/05/16 06:36:48;;;;;;;;;;;20.20;58.00;;;;;;6290278;28;19908;-68
2023/05/16 06:39:49;;;;;;;;;;;20.20;58.00;;;;;;6304317;28;19915;-68
2023/05/16 06:42:50;;;;;;;;;;;20.20;58.10;;;;;;6295315;28;19908;-68
2023/05/16 06:45:50;;;;;;;;;;;20.20;58.00;;;;;;6259880;28;19952;-68
2023/05/16 06:48:51;;;;;;;;;;;20.20;58.10;;;;;;6280096;28;19916;-68
2023/05/16 06:51:51;;;;;;;;;;;20.20;58.00;;;;;;6301565;28;19967;-68
2023/05/16 06:54:52;;;;;;;;;;;20.20;58.00;;;;;;6310353;28;19942;-68
2023/05/16 06:57:53;;;;;;;;;;;20.30;58.10;;;;;;6319819;28;19913;-68
2023/05/16 07:00:53;;;;;;;;;;;20.20;58.00;;;;;;6271069;28;19935;-68
2023/05/16 07:03:54;;;;;;;;;;;20.20;58.00;;;;;;6278547;28;19909;-68
2023/05/16 07:06:55;;;;;;;;;;;20.20;58.00;;;;;;6295807;28;19970;-68
2023/05/16 07:09:55;;;;;;;;;;;20.20;58.00;;;;;;6295630;28;19916;-68
2023/05/16 07:12:57;;;;;;;;;;;20.20;58.00;;;;;;6295275;28;19912;-68
2023/05/16 07:15:57;;;;;;;;;;;20.20;58.00;;;;;;6271571;28;19909;-68
2023/05/16 07:18:58;;;;;;;;;;;20.30;58.10;;;;;;6275774;28;19915;-68
2023/05/16 07:21:59;;;;;;;;;;;20.30;58.10;;;;;;6268729;28;19920;-68
2023/05/16 07:25:03;;;;;;;;;;;20.30;58.10;;;;;;6280212;28;19908;-68
2023/05/16 07:28:03;;;;;;;;;;;20.30;58.10;;;;;;6318533;28;19912;-68
2023/05/16 07:31:05;;;;;;;;;;;20.30;58.10;;;;;;6311060;28;19961;-68
2023/05/16 07:34:06;;;;;;;;;;;20.30;58.10;;;;;;6302840;28;19973;-68
2023/05/16 07:37:11;;;;;;;;;;;20.30;58.20;;;;;;6300322;28;19917;-68
2023/05/16 07:40:12;;;;;;;;;;;20.40;59.00;;;;;;6298672;28;19909;-68
2023/05/16 07:43:13;;;;;;;;;;;20.40;58.20;;;;;;6279565;28;19915;-68
2023/05/16 07:46:13;;;;;;;;;;;20.40;58.30;;;;;;6306878;28;19962;-68
2023/05/16 07:49:14;;;;;;;;;;;20.40;58.00;;;;;;6298797;28;19912;-67
2023/05/16 07:52:14;;;;;;;;;;;20.40;58.00;;;;;;6319472;28;20065;-68
2023/05/16 07:55:15;;;;;;;;;;;20.40;58.00;;;;;;6312793;28;19916;-68
2023/05/16 07:58:16;;;;;;;;;;;20.40;58.00;;;;;;6299449;28;19916;-69
2023/05/16 08:01:16;;;;;;;;;;;20.40;58.10;;;;;;6288615;28;19938;-68
2023/05/16 08:04:17;;;;;;;;;;;20.30;58.00;;;;;;6300018;28;19915;-68
2023/05/16 08:07:17;;;;;;;;;;;20.30;58.10;;;;;;6323015;28;20444;-68
2023/05/16 08:10:18;;;;;;;;;;;20.30;58.10;;;;;;6300258;28;19913;-68
2023/05/16 08:13:19;;;;;;;;;;;20.30;58.10;;;;;;6305872;28;19908;-68
2023/05/16 08:16:19;;;;;;;;;;;20.30;58.10;;;;;;6314302;28;20395;-68
2023/05/16 08:19:20;;;;;;;;;;;20.30;58.10;;;;;;6313235;28;19974;-68
2023/05/16 08:22:21;;;;;;;;;;;20.30;58.10;;;;;;6273799;28;19913;-69
2023/05/16 08:25:21;;;;;;;;;;;20.30;58.40;;;;;;6290579;28;19921;-68
2023/05/16 08:28:22;;;;;;;;;;;20.40;58.40;;;;;;6296316;28;19920;-69
2023/05/16 08:31:22;;;;;;;;;;;20.40;58.50;;;;;;6269610;28;19919;-69
2023/05/16 08:34:23;;;;;;;;;;;20.40;58.30;;;;;;6298150;28;19916;-69
2023/05/16 08:37:24;;;;;;;;;;;20.50;58.20;;;;;;6281702;28;19913;-69
2023/05/16 08:40:28;;;;;;;;;;;20.40;58.10;;;;;;6293239;28;19979;-68
2023/05/16 08:43:29;;;;;;;;;;;20.50;58.10;;;;;;6320023;28;19962;-67
2023/05/16 08:46:31;;;;;;;;;;;20.40;58.00;;;;;;6293378;28;19909;-64
2023/05/16 08:49:33;;;;;;;;;;;20.50;58.10;;;;;;6255737;28;20261;-68
2023/05/16 08:52:35;;;;;;;;;;;20.40;58.00;;;;;;6276184;28;19976;-68
2023/05/16 08:55:36;;;;;;;;;;;20.40;58.70;;;;;;6276606;28;19940;-69
2023/05/16 08:58:37;;;;;;;;;;;20.40;58.20;;;;;;6312049;28;19913;-68
2023/05/16 09:01:37;;;;;;;;;;;20.50;58.70;;;;;;6303118;28;19962;-69
2023/05/16 09:04:40;;;;;;;;;;;20.50;57.50;;;;;;6323715;28;20324;-69
2023/05/16 09:07:41;;;;;;;;;;;20.40;57.80;;;;;;6321086;28;19916;-67
2023/05/16 09:10:42;;;;;;;;;;;20.50;57.80;;;;;;6294379;28;19967;-68
2023/05/16 09:13:43;;;;;;;;;;;20.40;57.80;;;;;;6273648;28;19950;-68
2023/05/16 09:16:44;;;;;;;;;;;20.40;57.90;;;;;;6287700;28;20011;-68
2023/05/16 09:19:45;;;;;;;;;;;20.40;57.90;;;;;;6321775;28;20021;-68
2023/05/16 09:22:52;;;;;;;;;;;20.40;58.60;;;;;;6316108;28;20470;-68
2023/05/16 09:25:53;;;;;;;;;;;20.40;58.00;;;;;;6323356;28;19908;-68
2023/05/16 09:28:54;;;;;;;;;;;20.40;58.00;;;;;;6302805;28;19918;-69
2023/05/16 09:32:03;;;;;;;;;;;20.40;58.00;;;;;;6287957;28;19909;-69
2023/05/16 09:35:04;;;;;;;;;;;20.40;58.20;;;;;;6273024;28;19956;-69
2023/05/16 09:38:04;;;;;;;;;;;20.40;58.20;;;;;;6279676;28;19920;-69
2023/05/16 09:41:05;;;;;;;;;;;20.50;58.10;;;;;;6306096;28;19916;-68
2023/05/16 09:44:06;;;;;;;;;;;20.50;58.30;;;;;;6297716;28;19912;-69
2023/05/16 09:47:07;;;;;;;;;;;20.50;58.30;;;;;;6298042;28;19912;-69
2023/05/16 09:50:07;;;;;;;;;;;20.50;58.10;;;;;;6297767;28;19963;-69
2023/05/16 09:53:08;;;;;;;;;;;20.50;57.90;;;;;;6303073;28;19932;-69
2023/05/16 09:56:13;;;;;;;;;;;20.60;58.00;;;;;;6279521;28;19966;-69
2023/05/16 09:59:14;;;;;;;;;;;20.60;57.80;;;;;;6323124;28;19909;-68
2023/05/16 10:02:15;;;;;;;;;;;20.50;57.90;;;;;;6314819;28;19909;-68
2023/05/16 10:05:16;;;;;;;;;;;20.50;58.00;;;;;;6279836;28;19909;-67
2023/05/16 10:08:24;;;;;;;;;;;20.50;58.00;;;;;;6315211;28;19916;-68
2023/05/16 10:11:25;;;;;;;;;;;20.50;58.10;;;;;;6302156;28;20007;-68
2023/05/16 10:14:25;;;;;;;;;;;20.50;58.20;;;;;;6297233;28;19919;-67
2023/05/16 10:17:30;;;;;;;;;;;20.50;58.20;;;;;;6298691;28;19912;-67
2023/05/16 10:20:33;;;;;;;;;;;20.50;58.20;;;;;;6298969;28;19911;-67
2023/05/16 10:23:34;;;;;;;;;;;20.40;58.00;;;;;;6307832;28;20380;-69
2023/05/16 10:26:35;;;;;;;;;;;20.40;58.00;;;;;;6273497;28;20376;-67
2023/05/16 10:29:36;;;;;;;;;;;20.40;58.00;;;;;;6255110;28;19917;-67
2023/05/16 10:32:38;;;;;;;;;;;20.40;58.00;;;;;;6282596;28;19908;-67
2023/05/16 10:35:45;;;;;;;;;;;20.40;58.00;;;;;;6323809;28;19912;-67
2023/05/16 10:39:04;;;;;;;;;;;20.40;58.00;;;;;;6323954;28;20315;-67
2023/05/16 10:42:20;;;;;;;;;;;20.40;58.20;;;;;;6305377;28;19912;-67
2023/05/16 10:45:21;;;;;;;;;;;20.50;58.10;;;;;;6323462;28;19908;-67
2023/05/16 10:48:50;;;;;;;;;;;20.50;57.90;;;;;;6323232;28;19912;-67
2023/05/16 10:52:04;;;;;;;;;;;20.50;57.90;;;;;;6322355;28;19926;-67
2023/05/16 10:55:05;;;;;;;;;;;20.50;57.80;;;;;;6303321;28;19920;-68
2023/05/16 10:58:06;;;;;;;;;;;20.60;57.80;;;;;;6274044;28;19998;-67
2023/05/16 11:01:42;;;;;;;;;;;20.60;57.80;;;;;;6296587;28;20308;-70
2023/05/16 11:04:50;;;;;;;;;;;20.60;57.80;;;;;;6221366;28;19910;-68
2023/05/16 11:08:03;;;;;;;;;;;20.60;57.80;;;;;;6298357;28;20449;-69
2023/05/16 11:11:31;;;;;;;;;;;20.60;57.80;;;;;;6318977;28;19942;-68
2023/05/16 11:14:41;;;;;;;;;;;20.50;57.90;;;;;;6275433;28;20373;-69
2023/05/16 11:17:42;;;;;;;;;;;20.50;57.90;;;;;;6252643;28;20028;-67
2023/05/16 11:20:43;;;;;;;;;;;20.50;57.80;;;;;;6301750;28;19919;-68
2023/05/16 11:24:06;;;;;;;;;;;20.50;57.80;;;;;;6316099;28;19912;-67
2023/05/16 11:27:06;;;;;;;;;;;20.50;57.90;;;;;;6320660;28;19916;-68
2023/05/16 11:30:12;;;;;;;;;;;20.40;57.90;;;;;;6310126;28;20007;-71
2023/05/16 11:33:12;;;;;;;;;;;20.40;57.90;;;;;;6295380;28;20402;-69
2023/05/16 11:36:13;;;;;;;;;;;20.40;58.00;;;;;;6288449;28;20273;-67
2023/05/16 11:39:14;;;;;;;;;;;20.40;58.00;;;;;;6258182;28;20009;-70
2023/05/16 11:42:16;;;;;;;;;;;20.40;58.00;;;;;;6270408;28;19974;-70
2023/05/16 11:45:18;;;;;;;;;;;20.40;58.00;;;;;;6276745;28;19913;-72
2023/05/16 11:48:22;;;;;;;;;;;20.40;58.00;;;;;;6293140;28;20014;-72
2023/05/16 11:51:22;;;;;;;;;;;20.40;58.00;;;;;;6293707;28;20451;-71
2023/05/16 11:54:23;;;;;;;;;;;20.40;58.00;;;;;;6287139;28;19920;-71
2023/05/16 11:57:24;;;;;;;;;;;20.40;58.00;;;;;;6251331;28;19920;-72
2023/05/16 12:00:25;;;;;;;;;;;20.40;58.10;;;;;;6289612;28;19909;-72
2023/05/16 12:03:26;;;;;;;;;;;20.40;58.10;;;;;;6294045;28;19988;-71
2023/05/16 12:06:28;;;;;;;;;;;20.40;58.10;;;;;;6313415;28;20372;-72
2023/05/16 12:09:28;;;;;;;;;;;20.40;58.10;;;;;;6280505;28;19916;-72
2023/05/16 12:12:29;;;;;;;;;;;20.40;58.10;;;;;;6293925;28;19917;-72
2023/05/16 12:15:30;;;;;;;;;;;20.40;58.10;;;;;;6274581;28;19908;-72
2023/05/16 12:18:30;;;;;;;;;;;20.40;58.10;;;;;;6293574;28;19908;-72
2023/05/16 12:21:31;;;;;;;;;;;20.40;58.10;;;;;;6305322;28;19908;-72
2023/05/16 12:24:32;;;;;;;;;;;20.40;58.10;;;;;;6276081;28;19909;-71
2023/05/16 12:27:32;;;;;;;;;;;20.40;58.10;;;;;;6300893;28;19908;-71
2023/05/16 12:30:33;;;;;;;;;;;20.40;58.10;;;;;;6295714;28;20377;-72
2023/05/16 12:33:36;;;;;;;;;;;20.40;58.00;;;;;;6299458;28;19958;-72
2023/05/16 12:36:36;;;;;;;;;;;20.40;58.00;;;;;;6285892;28;19912;-72
2023/05/16 12:39:38;;;;;;;;;;;20.40;58.00;;;;;;6298034;28;19961;-76
2023/05/16 12:42:38;;;;;;;;;;;20.40;58.00;;;;;;6298059;28;19916;-72
2023/05/16 12:45:40;;;;;;;;;;;20.40;58.00;;;;;;6320713;28;19916;-73
2023/05/16 12:48:42;;;;;;;;;;;20.40;58.00;;;;;;6322883;28;19912;-72
2023/05/16 12:51:48;;;;;;;;;;;20.40;58.00;;;;;;6321832;28;19916;-72
2023/05/16 12:54:49;;;;;;;;;;;20.40;58.00;;;;;;6303742;28;19909;-72
2023/05/16 12:57:50;;;;;;;;;;;20.40;58.00;;;;;;6286198;28;19908;-72
2023/05/16 13:00:50;;;;;;;;;;;20.40;58.00;;;;;;6287343;28;20368;-72
2023/05/16 13:03:51;;;;;;;;;;;20.40;58.00;;;;;;6304546;28;19918;-72
2023/05/16 13:06:52;;;;;;;;;;;20.30;57.90;;;;;;6321196;28;19912;-73
2023/05/16 13:09:52;;;;;;;;;;;20.40;58.00;;;;;;6300841;28;19925;-72
2023/05/16 13:12:57;;;;;;;;;;;20.40;58.00;;;;;;6318829;28;19912;-73
2023/05/16 13:15:57;;;;;;;;;;;20.40;58.00;;;;;;6302954;28;19908;-72
2023/05/16 13:19:00;;;;;;;;;;;20.40;58.00;;;;;;6314666;28;19913;-74
2023/05/16 13:22:01;;;;;;;;;;;20.30;57.90;;;;;;6282592;28;19949;-72
2023/05/16 13:25:03;;;;;;;;;;;20.40;58.00;;;;;;6272502;28;19916;-72
2023/05/16 13:28:04;;;;;;;;;;;20.30;57.90;;;;;;6284142;28;20003;-73
2023/05/16 13:31:04;;;;;;;;;;;20.40;58.00;;;;;;6302266;28;19908;-73
2023/05/16 13:34:05;;;;;;;;;;;20.30;57.90;;;;;;6322235;28;20323;-73
2023/05/16 13:37:06;;;;;;;;;;;20.30;57.90;;;;;;6319906;28;19908;-72
2023/05/16 13:40:09;;;;;;;;;;;20.40;58.50;;;;;;6305474;28;20387;-72
2023/05/16 13:43:09;;;;;;;;;;;20.40;58.40;;;;;;6276696;28;19912;-73
2023/05/16 13:46:11;;;;;;;;;;;20.40;58.20;;;;;;6295247;28;19908;-73
2023/05/16 13:49:12;;;;;;;;;;;20.40;58.10;;;;;;6278990;28;19924;-73
2023/05/16 13:52:13;;;;;;;;;;;20.40;58.10;;;;;;6296960;28;19923;-72
2023/05/16 13:55:14;;;;;;;;;;;20.40;58.10;;;;;;6296882;28;19944;-73
2023/05/16 13:58:14;;;;;;;;;;;20.30;58.00;;;;;;6311353;28;20281;-72
2023/05/16 14:01:15;;;;;;;;;;;20.40;58.10;;;;;;6253544;28;19908;-73
2023/05/16 14:04:16;;;;;;;;;;;20.40;58.10;;;;;;6253675;28;20338;-73
2023/05/16 14:07:17;;;;;;;;;;;20.30;58.00;;;;;;6270930;28;20373;-73
2023/05/16 14:10:17;;;;;;;;;;;20.30;58.00;;;;;;6295418;28;19924;-72
2023/05/16 14:13:18;;;;;;;;;;;20.30;58.00;;;;;;6278112;28;19931;-72
2023/05/16 14:16:18;;;;;;;;;;;20.40;58.10;;;;;;6295666;28;19932;-73
2023/05/16 14:19:19;;;;;;;;;;;20.30;58.00;;;;;;6296564;28;19908;-73
2023/05/16 14:22:20;;;;;;;;;;;20.40;58.10;;;;;;6286783;28;19959;-72
2023/05/16 14:25:21;;;;;;;;;;;20.30;58.00;;;;;;6269641;28;19915;-73
2023/05/16 14:28:22;;;;;;;;;;;20.30;58.00;;;;;;6296271;28;20485;-73
2023/05/16 14:31:22;;;;;;;;;;;20.40;58.00;;;;;;6278051;28;19919;-73
2023/05/16 14:34:23;;;;;;;;;;;20.40;58.00;;;;;;6272505;28;19916;-74
2023/05/16 14:37:24;;;;;;;;;;;20.40;58.00;;;;;;6292476;28;19909;-73
2023/05/16 14:40:24;;;;;;;;;;;20.30;58.00;;;;;;6270568;28;19916;-73
2023/05/16 14:43:25;;;;;;;;;;;20.30;58.00;;;;;;6286346;28;19908;-73
2023/05/16 14:46:26;;;;;;;;;;;20.40;58.00;;;;;;6295353;28;19916;-73
2023/05/16 14:49:26;;;;;;;;;;;20.40;58.10;;;;;;6295310;28;19923;-73
2023/05/16 14:52:27;;;;;;;;;;;20.40;58.10;;;;;;6291339;28;20369;-73
2023/05/16 14:55:28;;;;;;;;;;;20.40;58.10;;;;;;6252632;28;19924;-73
2023/05/16 14:58:29;;;;;;;;;;;20.40;58.10;;;;;;6264484;28;19909;-73
2023/05/16 15:01:29;;;;;;;;;;;20.40;58.00;;;;;;6277779;28;19912;-73
2023/05/16 15:04:30;;;;;;;;;;;20.30;58.60;;;;;;6297305;28;20424;-73
2023/05/16 15:07:30;;;;;;;;;;;20.40;58.00;;;;;;6298193;28;20463;-74
2023/05/16 15:10:31;;;;;;;;;;;20.40;58.00;;;;;;6295689;28;19951;-74
2023/05/16 15:13:32;;;;;;;;;;;20.40;58.10;;;;;;6284971;28;19909;-73
2023/05/16 15:16:32;;;;;;;;;;;20.30;57.90;;;;;;6270635;28;20344;-73
2023/05/16 15:19:33;;;;;;;;;;;20.30;57.90;;;;;;6288190;28;19909;-74
2023/05/16 15:22:35;;;;;;;;;;;20.40;58.00;;;;;;6294547;28;19908;-73
2023/05/16 15:25:35;;;;;;;;;;;20.40;58.10;;;;;;6294820;28;20486;-73
2023/05/16 15:28:36;;;;;;;;;;;20.40;58.00;;;;;;6288365;28;19958;-73
2023/05/16 15:31:37;;;;;;;;;;;20.40;58.00;;;;;;6272350;28;19913;-74
2023/05/16 15:34:38;;;;;;;;;;;20.40;58.00;;;;;;6284794;28;19915;-75
2023/05/16 15:37:39;;;;;;;;;;;20.30;58.00;;;;;;6299515;28;20281;-72
2023/05/16 15:40:40;;;;;;;;;;;20.30;58.00;;;;;;6285023;28;19913;-73
2023/05/16 15:43:41;;;;;;;;;;;20.30;58.00;;;;;;6289275;28;20309;-74
2023/05/16 15:46:41;;;;;;;;;;;20.40;58.10;;;;;;6268512;28;19916;-74
2023/05/16 15:49:42;;;;;;;;;;;20.30;58.00;;;;;;6276879;28;19912;-73
2023/05/16 15:52:43;;;;;;;;;;;20.40;58.10;;;;;;6276891;28;19924;-73
2023/05/16 15:55:46;;;;;;;;;;;20.40;58.10;;;;;;6294005;28;20396;-74
2023/05/16 15:58:47;;;;;;;;;;;20.30;58.00;;;;;;6297006;28;20377;-73
2023/05/16 16:01:47;;;;;;;;;;;20.30;58.00;;;;;;6302876;28;19919;-73
2023/05/16 16:04:50;;;;;;;;;;;20.30;58.80;;;;;;6299550;28;20004;-73
2023/05/16 16:07:51;;;;;;;;;;;20.40;58.20;;;;;;6291252;28;19931;-74
2023/05/16 16:10:51;;;;;;;;;;;20.30;58.10;;;;;;6281179;28;19916;-75
2023/05/16 16:13:52;;;;;;;;;;;20.30;58.10;;;;;;6295177;28;19917;-79
2023/05/16 16:16:53;;;;;;;;;;;20.30;58.10;;;;;;6297672;28;19915;-74
2023/05/16 16:19:53;;;;;;;;;;;20.30;58.10;;;;;;6302517;28;19908;-73
2023/05/16 16:22:54;;;;;;;;;;;20.40;58.20;;;;;;6320314;28;19908;-73
2023/05/16 16:25:55;;;;;;;;;;;20.30;58.10;;;;;;6312773;28;19908;-73
2023/05/16 16:28:55;;;;;;;;;;;20.30;58.10;;;;;;6302143;28;19936;-73
2023/05/16 16:31:56;;;;;;;;;;;20.30;58.10;;;;;;6280297;28;19924;-73
2023/05/16 16:34:56;;;;;;;;;;;20.30;58.10;;;;;;6286465;28;19912;-73
2023/05/16 16:37:58;;;;;;;;;;;20.30;58.10;;;;;;6278933;28;19919;-73
2023/05/16 16:40:58;;;;;;;;;;;20.30;58.10;;;;;;6296828;28;20601;-72
2023/05/16 16:43:59;;;;;;;;;;;20.30;58.10;;;;;;6303601;28;20003;-73
2023/05/16 16:46:59;;;;;;;;;;;20.30;58.10;;;;;;6287314;28;19912;-73
2023/05/16 16:50:00;;;;;;;;;;;20.30;58.10;;;;;;6295906;28;19912;-72
2023/05/16 16:53:03;;;;;;;;;;;20.30;58.10;;;;;;6296378;28;20424;-73
2023/05/16 16:56:03;;;;;;;;;;;20.30;58.10;;;;;;6296033;28;20450;-73
2023/05/16 16:59:05;;;;;;;;;;;20.30;58.20;;;;;;6286585;28;19909;-73
2023/05/16 17:02:05;;;;;;;;;;;20.30;58.90;;;;;;6286078;28;20383;-73
2023/05/16 17:05:08;;;;;;;;;;;20.30;58.10;;;;;;6314404;28;19909;-73
2023/05/16 17:08:09;;;;;;;;;;;20.30;58.20;;;;;;6296075;28;19917;-73
2023/05/16 17:11:10;;;;;;;;;;;20.30;58.20;;;;;;6296059;28;20421;-73
2023/05/16 17:14:12;;;;;;;;;;;20.30;58.20;;;;;;6295737;28;20002;-73
2023/05/16 17:17:14;;;;;;;;;;;20.30;58.20;;;;;;6278011;28;19909;-73
2023/05/16 17:20:14;;;;;;;;;;;20.30;58.20;;;;;;6295343;28;19967;-72
2023/05/16 17:23:15;;;;;;;;;;;20.30;58.20;;;;;;6288155;28;19962;-72
2023/05/16 17:26:16;;;;;;;;;;;20.30;58.20;;;;;;6286797;28;20395;-71
2023/05/16 17:29:18;;;;;;;;;;;20.30;58.20;;;;;;6296625;28;19978;-73
2023/05/16 17:32:20;;;;;;;;;;;20.30;58.20;;;;;;6295528;28;19908;-73
2023/05/16 17:35:21;;;;;;;;;;;20.30;58.20;;;;;;6292556;28;19909;-73
2023/05/16 17:38:21;;;;;;;;;;;20.30;58.20;;;;;;6302804;28;19912;-73
2023/05/16 17:41:22;;;;;;;;;;;20.30;58.20;;;;;;6302261;28;19908;-72